createdAt,value
2023-04-12T00:00:12.094Z,74.50
2023-04-12T00:02:42.698Z,74.10
2023-04-12T00:05:14.184Z,74.40
2023-04-12T00:07:49.110Z,74.70
2023-04-12T00:10:17.857Z,75.10
2023-04-12T00:12:47.089Z,74.50
2023-04-12T00:15:15.909Z,75.10
2023-04-12T00:17:46.593Z,74.80
2023-04-12T00:20:16.690Z,75.10
2023-04-12T00:22:46.922Z,75.50
2023-04-12T00:25:15.633Z,76.70
2023-04-12T00:27:44.370Z,76.40
2023-04-12T00:30:13.866Z,77.70
2023-04-12T00:32:44.700Z,78.10
2023-04-12T00:35:13.711Z,78.00
2023-04-12T00:37:42.476Z,77.60
2023-04-12T00:40:14.191Z,77.70
2023-04-12T00:42:43.011Z,76.80
2023-04-12T00:45:12.688Z,76.60
2023-04-12T00:47:43.641Z,76.40
2023-04-12T00:50:13.447Z,75.90
2023-04-12T00:52:42.282Z,76.70
2023-04-12T00:55:12.661Z,76.20
2023-04-12T00:57:42.166Z,76.30
2023-04-12T01:00:13.776Z,76.60
2023-04-12T01:02:47.505Z,76.10
2023-04-12T01:05:22.129Z,75.90
2023-04-12T01:08:06.337Z,74.80
2023-04-12T01:10:43.449Z,73.40
2023-04-12T01:13:23.109Z,74.10
2023-04-12T01:15:57.096Z,73.90
2023-04-12T01:18:32.008Z,73.30
2023-04-12T01:21:08.051Z,72.40
2023-04-12T01:23:53.341Z,72.60
2023-04-12T01:26:34.638Z,73.00
2023-04-12T01:29:12.467Z,72.80
2023-04-12T01:31:43.140Z,73.90
2023-04-12T01:34:13.646Z,73.80
2023-04-12T01:36:46.306Z,73.90
2023-04-12T01:39:15.480Z,72.70
2023-04-12T01:41:45.779Z,71.60
2023-04-12T01:44:16.922Z,72.20
2023-04-12T01:46:47.675Z,73.70
2023-04-12T01:49:17.640Z,73.50
2023-04-12T01:51:53.826Z,73.30
2023-04-12T01:54:28.941Z,73.00
2023-04-12T01:57:02.124Z,72.30
2023-04-12T01:59:39.396Z,71.70
2023-04-12T02:02:08.985Z,72.00
2023-04-12T02:04:38.801Z,71.70
2023-04-12T02:07:07.558Z,71.40
2023-04-12T02:09:39.492Z,71.20
2023-04-12T02:12:09.155Z,70.80
2023-04-12T02:14:39.719Z,69.90
2023-04-12T02:17:08.783Z,70.10
2023-04-12T02:19:38.926Z,71.10
2023-04-12T02:22:08.560Z,71.40
2023-04-12T02:24:37.312Z,73.00
2023-04-12T02:27:06.245Z,73.50
2023-04-12T02:29:36.215Z,74.10
2023-04-12T02:32:06.680Z,74.60
2023-04-12T02:34:36.917Z,74.10
2023-04-12T02:37:23.719Z,73.40
2023-04-12T02:39:52.534Z,73.30
2023-04-12T02:42:22.798Z,73.20
2023-04-12T02:44:51.978Z,73.50
2023-04-12T02:47:22.977Z,73.90
2023-04-12T02:49:53.118Z,74.40
2023-04-12T02:52:24.311Z,74.30
2023-04-12T02:55:09.077Z,74.00
2023-04-12T02:57:37.956Z,74.10
2023-04-12T03:00:12.428Z,74.80
2023-04-12T03:02:51.658Z,75.20
2023-04-12T03:05:27.738Z,75.00
2023-04-12T03:07:57.349Z,75.00
2023-04-12T03:10:34.128Z,75.10
2023-04-12T03:13:05.101Z,75.40
2023-04-12T03:15:49.743Z,77.30
2023-04-12T03:18:23.660Z,78.80
2023-04-12T03:20:54.812Z,80.10
2023-04-12T03:23:24.127Z,81.70
2023-04-12T03:26:03.129Z,79.80
2023-04-12T03:28:35.796Z,79.70
2023-04-12T03:31:07.843Z,79.40
2023-04-12T03:33:57.146Z,79.10
2023-04-12T03:36:29.878Z,80.00
2023-04-12T03:39:07.095Z,79.70
2023-04-12T03:41:38.164Z,79.00
2023-04-12T03:44:07.801Z,78.50
2023-04-12T03:46:37.851Z,77.90
2023-04-12T03:49:12.748Z,79.30
2023-04-12T03:51:43.901Z,79.80
2023-04-12T03:54:14.107Z,80.80
2023-04-12T03:56:56.870Z,82.00
2023-04-12T03:59:41.856Z,83.90
2023-04-12T04:02:11.559Z,85.30
2023-04-12T04:04:48.642Z,84.80
2023-04-12T04:07:26.553Z,84.40
2023-04-12T04:09:57.534Z,84.90
2023-04-12T04:12:30.102Z,84.80
2023-04-12T04:14:59.685Z,85.40
2023-04-12T04:17:32.404Z,86.70
2023-04-12T04:20:05.578Z,88.30
2023-04-12T04:22:37.198Z,88.00
2023-04-12T04:25:07.221Z,87.10
2023-04-12T04:27:40.516Z,87.70
2023-04-12T04:30:11.959Z,87.30
2023-04-12T04:32:46.249Z,87.50
2023-04-12T04:35:18.547Z,88.90
2023-04-12T04:38:02.038Z,90.00
2023-04-12T04:40:31.148Z,90.50
2023-04-12T04:43:00.464Z,91.00
2023-04-12T04:45:33.893Z,90.70
2023-04-12T04:48:03.766Z,91.00
2023-04-12T04:50:34.128Z,90.60
2023-04-12T04:53:04.111Z,90.30
2023-04-12T04:55:35.071Z,89.90
2023-04-12T04:58:03.879Z,88.00
2023-04-12T05:00:32.867Z,86.60
2023-04-12T05:03:03.387Z,85.90
2023-04-12T05:05:33.799Z,86.40
2023-04-12T05:08:10.435Z,86.70
2023-04-12T05:10:39.245Z,86.30
2023-04-12T05:13:10.099Z,85.00
2023-04-12T05:15:42.560Z,83.50
2023-04-12T05:18:11.353Z,83.40
2023-04-12T05:20:41.925Z,82.60
2023-04-12T05:23:10.827Z,82.60
2023-04-12T05:25:47.041Z,83.30
2023-04-12T05:28:17.646Z,83.70
2023-04-12T05:30:46.985Z,84.50
2023-04-12T05:33:20.914Z,85.80
2023-04-12T05:35:52.341Z,85.90
2023-04-12T05:38:21.902Z,86.10
2023-04-12T05:40:58.024Z,84.70
2023-04-12T05:43:26.876Z,84.60
2023-04-12T05:45:56.358Z,83.90
2023-04-12T05:48:25.781Z,83.20
2023-04-12T05:50:58.366Z,82.20
2023-04-12T05:53:29.964Z,82.90
2023-04-12T05:56:02.109Z,81.00
2023-04-12T05:58:31.660Z,79.60
2023-04-12T06:01:01.064Z,78.90
2023-04-12T06:03:32.546Z,79.60
2023-04-12T06:06:11.980Z,79.40
2023-04-12T06:08:42.490Z,77.90
2023-04-12T06:11:12.268Z,77.50
2023-04-12T06:13:43.137Z,78.30
2023-04-12T06:16:12.171Z,79.00
2023-04-12T06:18:41.366Z,80.00
2023-04-12T06:21:11.596Z,81.30
2023-04-12T06:23:41.992Z,82.20
2023-04-12T06:26:11.470Z,81.60
2023-04-12T06:28:40.949Z,81.60
2023-04-12T06:31:09.794Z,83.10
2023-04-12T06:33:40.876Z,82.90
2023-04-12T06:36:15.817Z,81.30
2023-04-12T06:38:44.518Z,80.20
2023-04-12T06:41:13.453Z,78.20
2023-04-12T06:43:42.211Z,75.80
2023-04-12T06:46:10.945Z,75.80
2023-04-12T06:48:40.854Z,74.20
2023-04-12T06:51:10.153Z,74.60
2023-04-12T06:53:40.478Z,74.50
2023-04-12T06:56:09.985Z,71.70
2023-04-12T06:58:38.730Z,71.40
2023-04-12T07:01:07.954Z,72.20
2023-04-12T07:03:36.887Z,71.50
2023-04-12T07:06:17.763Z,70.80
2023-04-12T07:08:54.582Z,70.00
2023-04-12T07:11:24.039Z,70.10
2023-04-12T07:13:52.881Z,70.80
2023-04-12T07:16:21.645Z,70.00
2023-04-12T07:18:50.616Z,69.60
2023-04-12T07:21:19.355Z,69.70
2023-04-12T07:23:51.334Z,69.10
2023-04-12T07:26:22.391Z,68.40
2023-04-12T07:28:51.174Z,68.80
2023-04-12T07:31:19.954Z,68.20
2023-04-12T07:33:48.779Z,67.30
2023-04-12T07:36:21.420Z,67.60
2023-04-12T07:38:55.434Z,67.90
2023-04-12T07:41:26.169Z,67.00
2023-04-12T07:43:55.004Z,68.20
2023-04-12T07:46:23.822Z,67.70
2023-04-12T07:48:53.490Z,66.90
2023-04-12T07:51:22.232Z,67.10
2023-04-12T07:53:51.872Z,66.40
2023-04-12T07:56:20.597Z,67.00
2023-04-12T07:58:50.857Z,66.20
2023-04-12T08:01:19.588Z,65.70
2023-04-12T08:03:49.033Z,66.10
2023-04-12T08:06:18.596Z,66.60
2023-04-12T08:08:47.438Z,65.90
2023-04-12T08:11:16.299Z,65.90
2023-04-12T08:13:44.998Z,64.80
2023-04-12T08:16:15.152Z,63.60
2023-04-12T08:18:43.989Z,64.40
2023-04-12T08:21:12.836Z,62.50
2023-04-12T08:23:41.566Z,63.10
2023-04-12T08:26:10.770Z,63.20
2023-04-12T08:28:39.993Z,63.30
2023-04-12T08:31:09.354Z,62.40
2023-04-12T08:33:41.017Z,62.40
2023-04-12T08:36:10.772Z,61.90
2023-04-12T08:38:45.762Z,62.50
2023-04-12T08:41:15.425Z,63.90
2023-04-12T08:43:47.599Z,63.50
2023-04-12T08:46:17.740Z,62.60
2023-04-12T08:48:49.348Z,63.20
2023-04-12T08:51:19.478Z,61.70
2023-04-12T08:53:48.550Z,60.90
2023-04-12T08:56:18.288Z,61.00
2023-04-12T08:58:49.318Z,59.50
2023-04-12T09:01:19.223Z,60.40
2023-04-12T09:03:49.908Z,59.80
2023-04-12T09:06:18.815Z,59.10
2023-04-12T09:08:54.947Z,58.30
2023-04-12T09:11:25.923Z,58.90
2023-04-12T09:13:56.534Z,58.10
2023-04-12T09:16:38.667Z,56.30
2023-04-12T09:19:09.612Z,56.00
2023-04-12T09:21:39.007Z,55.60
2023-04-12T09:24:14.229Z,56.60
2023-04-12T09:26:43.697Z,55.20
2023-04-12T09:29:26.311Z,55.30
2023-04-12T09:32:01.891Z,54.40
2023-04-12T09:34:32.641Z,55.40
2023-04-12T09:37:01.487Z,54.10
2023-04-12T09:39:34.130Z,53.90
2023-04-12T09:42:14.855Z,53.40
2023-04-12T09:44:54.980Z,53.70
2023-04-12T09:47:25.171Z,53.60
2023-04-12T09:49:55.913Z,53.10
2023-04-12T09:52:24.667Z,53.00
2023-04-12T09:54:54.825Z,52.80
2023-04-12T09:57:26.765Z,52.20
2023-04-12T10:00:00.379Z,53.20
2023-04-12T10:02:30.337Z,52.30
2023-04-12T10:05:01.034Z,53.50
2023-04-12T10:07:30.029Z,53.30
2023-04-12T10:10:01.200Z,52.10
2023-04-12T10:12:30.343Z,50.60
2023-04-12T10:15:00.399Z,50.00
2023-04-12T10:17:29.266Z,50.70
2023-04-12T10:20:00.046Z,49.60
2023-04-12T10:22:28.883Z,50.60
2023-04-12T10:24:58.209Z,49.50
2023-04-12T10:27:28.994Z,50.20
2023-04-12T10:30:20.940Z,47.80
2023-04-12T10:32:51.297Z,47.30
2023-04-12T10:35:21.873Z,45.00
2023-04-12T10:38:01.561Z,45.70
2023-04-12T10:40:31.810Z,45.20
2023-04-12T10:43:29.101Z,46.40
2023-04-12T10:45:59.147Z,49.10
2023-04-12T10:48:32.639Z,49.20
2023-04-12T10:51:23.546Z,48.60
2023-04-12T10:53:52.997Z,48.80
2023-04-12T10:56:43.415Z,48.20
2023-04-12T10:59:18.075Z,47.60
2023-04-12T11:02:13.105Z,47.40
2023-04-12T11:05:05.507Z,49.50
2023-04-12T11:07:55.605Z,48.80
2023-04-12T11:10:43.549Z,47.90
2023-04-12T11:13:18.412Z,49.10
2023-04-12T11:15:47.628Z,47.30
2023-04-12T11:18:16.648Z,50.80
2023-04-12T11:20:46.693Z,49.10
2023-04-12T11:23:17.159Z,47.10
2023-04-12T11:25:50.927Z,47.20
2023-04-12T11:28:28.885Z,47.90
2023-04-12T11:31:00.043Z,47.90
2023-04-12T11:33:35.857Z,47.00
2023-04-12T11:36:08.786Z,47.80
2023-04-12T11:38:39.231Z,48.80
2023-04-12T11:41:09.708Z,46.70
2023-04-12T11:43:39.072Z,45.40
2023-04-12T11:46:09.260Z,44.60
2023-04-12T11:48:39.045Z,45.20
2023-04-12T11:51:21.218Z,47.50
2023-04-12T11:53:57.206Z,47.70
2023-04-12T11:56:26.631Z,44.90
2023-04-12T11:58:55.383Z,43.50
2023-04-12T12:01:24.883Z,41.00
2023-04-12T12:03:54.060Z,42.10
2023-04-12T12:06:26.524Z,42.90
2023-04-12T12:08:57.634Z,43.50
2023-04-12T12:11:27.355Z,43.20
2023-04-12T12:13:58.544Z,45.20
2023-04-12T12:16:29.127Z,39.70
2023-04-12T12:18:58.759Z,41.00
2023-04-12T12:21:28.659Z,42.90
2023-04-12T12:23:59.569Z,41.20
2023-04-12T12:26:30.646Z,40.90
2023-04-12T12:29:00.940Z,40.90
2023-04-12T12:31:30.023Z,40.70
2023-04-12T12:34:00.346Z,41.40
2023-04-12T12:36:33.623Z,41.30
2023-04-12T12:39:10.812Z,40.90
2023-04-12T12:41:40.834Z,41.30
2023-04-12T12:44:11.352Z,41.10
2023-04-12T12:46:53.347Z,42.10
2023-04-12T12:49:25.905Z,40.80
2023-04-12T12:51:54.742Z,42.00
2023-04-12T12:57:01.520Z,42.50
2023-04-12T12:59:30.284Z,41.80
2023-04-12T13:01:59.189Z,42.40
2023-04-12T13:04:28.294Z,43.50
2023-04-12T13:06:57.108Z,41.70
2023-04-12T13:09:27.331Z,43.10
2023-04-12T13:11:57.297Z,43.00
2023-04-12T13:14:26.305Z,41.70
2023-04-12T13:16:55.080Z,42.10
2023-04-12T13:19:23.851Z,42.90
2023-04-12T13:21:53.359Z,44.30
2023-04-12T13:24:22.165Z,43.60
2023-04-12T13:26:52.519Z,44.20
2023-04-12T13:29:21.211Z,42.80
2023-04-12T13:31:50.010Z,42.50
2023-04-12T13:34:18.977Z,42.50
2023-04-12T13:36:47.697Z,42.80
2023-04-12T13:39:16.428Z,42.20
2023-04-12T13:41:45.407Z,42.70
2023-04-12T13:44:15.599Z,44.50
2023-04-12T13:46:44.387Z,42.90
2023-04-12T13:49:13.284Z,43.10
2023-04-12T13:51:42.063Z,42.30
2023-04-12T13:54:10.867Z,42.90
2023-04-12T13:56:39.598Z,44.90
2023-04-12T13:59:08.328Z,44.90
2023-04-12T14:01:38.662Z,43.30
2023-04-12T14:04:09.055Z,45.50
2023-04-12T14:06:38.891Z,42.60
2023-04-12T14:09:07.615Z,45.50
2023-04-12T14:11:49.237Z,45.90
2023-04-12T14:14:17.977Z,46.30
2023-04-12T14:16:48.265Z,46.30
2023-04-12T14:19:17.206Z,45.20
2023-04-12T14:21:46.018Z,43.70
2023-04-12T14:24:14.895Z,44.80
2023-04-12T14:26:43.892Z,43.70
2023-04-12T14:29:13.680Z,45.30
2023-04-12T14:31:42.517Z,45.40
2023-04-12T14:34:13.634Z,46.20
2023-04-12T14:36:42.353Z,46.00
2023-04-12T14:39:13.243Z,45.40
2023-04-12T14:41:43.189Z,44.40
2023-04-12T14:44:11.914Z,45.80
2023-04-12T14:46:40.872Z,45.00
2023-04-12T14:49:09.660Z,46.90
2023-04-12T14:51:39.873Z,46.70
2023-04-12T14:54:08.712Z,46.40
2023-04-12T14:56:43.352Z,45.40
2023-04-12T14:59:13.986Z,46.10
2023-04-12T15:01:43.523Z,45.70
2023-04-12T15:04:13.257Z,45.70
2023-04-12T15:06:45.904Z,45.60
2023-04-12T15:09:15.836Z,45.90
2023-04-12T15:11:46.918Z,45.90
2023-04-12T15:14:20.116Z,45.70
2023-04-12T15:16:50.462Z,45.70
2023-04-12T15:19:22.829Z,45.50
2023-04-12T15:21:55.465Z,45.20
2023-04-12T15:24:24.825Z,45.40
2023-04-12T15:26:54.482Z,45.90
2023-04-12T15:29:24.477Z,44.90
2023-04-12T15:31:53.509Z,45.40
2023-04-12T15:34:23.714Z,45.40
2023-04-12T15:36:53.940Z,44.20
2023-04-12T15:39:23.015Z,45.40
2023-04-12T15:41:54.800Z,45.10
2023-04-12T15:44:25.714Z,45.50
2023-04-12T15:47:09.880Z,45.00
2023-04-12T15:49:40.552Z,44.30
2023-04-12T15:52:10.804Z,44.70
2023-04-12T15:54:43.602Z,45.60
2023-04-12T15:57:12.752Z,44.80
2023-04-12T15:59:42.150Z,43.10
2023-04-12T16:02:11.150Z,45.20
2023-04-12T16:04:40.757Z,44.60
2023-04-12T16:07:11.777Z,44.10
2023-04-12T16:09:41.011Z,44.50
2023-04-12T16:12:09.762Z,45.00
2023-04-12T16:14:39.519Z,45.80
2023-04-12T16:17:08.727Z,44.60
2023-04-12T16:19:37.711Z,45.50
2023-04-12T16:22:06.570Z,45.60
2023-04-12T16:24:37.586Z,45.60
2023-04-12T16:27:07.275Z,45.30
2023-04-12T16:29:36.092Z,45.60
2023-04-12T16:32:04.983Z,45.90
2023-04-12T16:34:33.845Z,45.80
2023-04-12T16:37:02.852Z,45.90
2023-04-12T16:39:32.360Z,44.90
2023-04-12T16:42:06.456Z,45.20
2023-04-12T16:44:35.257Z,44.60
2023-04-12T16:47:04.166Z,43.90
2023-04-12T16:49:33.454Z,45.10
2023-04-12T16:52:02.781Z,45.20
2023-04-12T16:54:31.758Z,46.50
2023-04-12T16:57:02.070Z,46.10
2023-04-12T16:59:33.534Z,46.10
2023-04-12T17:02:02.322Z,46.30
2023-04-12T17:04:31.760Z,47.00
2023-04-12T17:07:00.521Z,46.10
2023-04-12T17:09:29.356Z,47.40
2023-04-12T17:11:58.076Z,48.10
2023-04-12T17:14:30.114Z,48.10
2023-04-12T17:16:58.916Z,48.70
2023-04-12T17:19:27.612Z,49.60
2023-04-12T17:21:56.352Z,49.60
2023-04-12T17:24:25.550Z,49.60
2023-04-12T17:26:54.649Z,49.40
2023-04-12T17:29:23.546Z,49.50
2023-04-12T17:31:55.026Z,49.70
2023-04-12T17:34:23.934Z,49.50
2023-04-12T17:36:55.328Z,50.20
2023-04-12T17:39:24.117Z,50.10
2023-04-12T17:41:52.815Z,50.30
2023-04-12T17:44:21.561Z,50.10
2023-04-12T17:46:50.303Z,50.40
2023-04-12T17:49:20.537Z,50.40
2023-04-12T17:51:49.295Z,50.40
2023-04-12T17:54:18.336Z,51.70
2023-04-12T17:56:49.637Z,52.40
2023-04-12T17:59:18.456Z,52.80
2023-04-12T18:01:47.618Z,52.70
2023-04-12T18:04:16.733Z,52.40
2023-04-12T18:06:47.068Z,51.10
2023-04-12T18:09:15.988Z,51.50
2023-04-12T18:11:44.678Z,52.00
2023-04-12T18:14:13.809Z,51.30
2023-04-12T18:16:42.617Z,53.20
2023-04-12T18:19:11.671Z,53.80
2023-04-12T18:21:40.386Z,54.30
2023-04-12T18:24:10.905Z,52.50
2023-04-12T18:26:39.668Z,52.40
2023-04-12T18:29:08.427Z,52.30
2023-04-12T18:31:42.357Z,51.80
2023-04-12T18:34:11.202Z,51.20
2023-04-12T18:36:40.016Z,51.40
2023-04-12T18:39:11.250Z,50.50
2023-04-12T18:41:41.087Z,49.80
2023-04-12T18:44:13.322Z,50.20
2023-04-12T18:46:42.350Z,50.90
2023-04-12T18:49:11.921Z,50.90
2023-04-12T18:51:40.672Z,51.30
2023-04-12T18:54:13.962Z,51.90
2023-04-12T18:56:43.519Z,52.40
2023-04-12T18:59:17.749Z,52.50
2023-04-12T19:01:47.401Z,52.40
2023-04-12T19:04:16.709Z,53.00
2023-04-12T19:06:47.454Z,53.50
2023-04-12T19:09:17.811Z,54.20
2023-04-12T19:11:47.356Z,54.70
2023-04-12T19:14:16.292Z,54.60
2023-04-12T19:16:45.339Z,55.80
2023-04-12T19:19:14.755Z,55.50
2023-04-12T19:21:43.928Z,56.50
2023-04-12T19:24:13.424Z,57.60
2023-04-12T19:26:47.777Z,58.00
2023-04-12T19:29:20.889Z,59.30
2023-04-12T19:31:52.303Z,58.10
2023-04-12T19:34:23.304Z,57.30
2023-04-12T19:36:57.196Z,56.50
2023-04-12T19:39:28.860Z,57.40
2023-04-12T19:42:00.006Z,55.50
2023-04-12T19:44:32.785Z,55.10
2023-04-12T19:47:02.576Z,56.00
2023-04-12T19:49:33.565Z,55.80
2023-04-12T19:52:16.316Z,55.80
2023-04-12T19:54:45.604Z,56.00
2023-04-12T19:57:18.140Z,58.30
2023-04-12T19:59:47.136Z,60.00
2023-04-12T20:02:21.204Z,59.90
2023-04-12T20:04:51.532Z,61.70
2023-04-12T20:07:22.207Z,62.50
2023-04-12T20:09:52.916Z,62.70
2023-04-12T20:12:24.428Z,62.30
2023-04-12T20:14:55.376Z,61.80
2023-04-12T20:17:26.840Z,61.90
2023-04-12T20:19:56.970Z,61.40
2023-04-12T20:22:27.683Z,61.30
2023-04-12T20:25:00.242Z,62.10
2023-04-12T20:27:41.274Z,63.00
2023-04-12T20:30:17.830Z,63.50
2023-04-12T20:32:49.528Z,63.20
2023-04-12T20:35:18.994Z,64.50
2023-04-12T20:37:50.504Z,65.40
2023-04-12T20:40:20.719Z,65.80
2023-04-12T20:42:52.326Z,64.60
2023-04-12T20:45:21.921Z,63.30
2023-04-12T20:47:51.429Z,63.60
2023-04-12T20:50:23.222Z,63.40
2023-04-12T20:52:54.905Z,62.30
2023-04-12T20:55:25.332Z,63.70
2023-04-12T20:57:56.295Z,63.40
2023-04-12T21:00:25.717Z,63.80
2023-04-12T21:02:54.949Z,66.00
2023-04-12T21:05:24.344Z,67.70
2023-04-12T21:07:53.147Z,67.00
2023-04-12T21:10:22.415Z,67.20
2023-04-12T21:12:51.941Z,65.80
2023-04-12T21:15:23.117Z,64.90
2023-04-12T21:17:52.493Z,65.90
2023-04-12T21:20:21.638Z,66.80
2023-04-12T21:22:53.647Z,66.30
2023-04-12T21:25:23.073Z,64.90
2023-04-12T21:27:53.262Z,64.50
2023-04-12T21:30:23.570Z,64.80
2023-04-12T21:32:53.712Z,64.70
2023-04-12T21:35:23.233Z,66.50
2023-04-12T21:37:52.580Z,67.40
2023-04-12T21:40:21.342Z,67.80
2023-04-12T21:42:50.158Z,68.50
2023-04-12T21:45:19.679Z,68.50
2023-04-12T21:47:50.420Z,69.90
2023-04-12T21:50:19.220Z,70.50
2023-04-12T21:52:48.058Z,71.20
2023-04-12T21:55:16.920Z,71.60
2023-04-12T21:57:47.075Z,72.00
2023-04-12T22:00:18.484Z,72.20
2023-04-12T22:02:47.500Z,73.60
2023-04-12T22:05:18.152Z,73.30
2023-04-12T22:07:47.855Z,74.20
2023-04-12T22:10:16.507Z,75.00
2023-04-12T22:12:50.696Z,75.50
2023-04-12T22:15:19.727Z,75.60
2023-04-12T22:17:48.602Z,76.70
2023-04-12T22:20:19.028Z,79.20
2023-04-12T22:22:48.621Z,80.40
2023-04-12T22:25:18.665Z,80.20
2023-04-12T22:27:48.190Z,83.00
2023-04-12T22:30:17.087Z,85.10
2023-04-12T22:32:45.885Z,85.90
2023-04-12T22:35:14.933Z,87.20
2023-04-12T22:37:46.026Z,88.20
2023-04-12T22:40:15.003Z,88.60
2023-04-12T22:42:46.975Z,90.60
2023-04-12T22:45:16.394Z,88.90
2023-04-12T22:47:45.441Z,90.20
2023-04-12T22:50:14.534Z,90.40
2023-04-12T22:52:44.776Z,91.50
2023-04-12T22:55:16.986Z,92.00
2023-04-12T22:57:47.190Z,93.90
2023-04-12T23:00:18.279Z,94.80
2023-04-12T23:02:48.805Z,95.30
2023-04-12T23:05:17.836Z,95.60
2023-04-12T23:07:49.276Z,97.90
2023-04-12T23:10:18.394Z,99.50
2023-04-12T23:12:49.295Z,99.80
2023-04-12T23:15:18.260Z,99.90
2023-04-12T23:17:47.057Z,99.90
2023-04-12T23:20:16.034Z,99.90
2023-04-12T23:22:57.783Z,99.90
2023-04-12T23:25:39.485Z,99.90
2023-04-12T23:28:13.296Z,99.90
2023-04-12T23:30:44.993Z,99.90
2023-04-12T23:33:13.755Z,99.90
2023-04-12T23:35:43.861Z,99.90
2023-04-12T23:38:16.035Z,99.90
2023-04-12T23:40:46.986Z,99.90
2023-04-12T23:43:15.709Z,99.90
2023-04-12T23:45:44.462Z,99.90
2023-04-12T23:48:13.290Z,99.90
2023-04-12T23:50:42.069Z,99.90
2023-04-12T23:53:11.194Z,99.90
2023-04-12T23:55:39.973Z,99.90
2023-04-12T23:58:10.278Z,99.90
